sensor_id;sensor_type;location;lat;lon;timestamp;pressure;altitude;pressure_sealevel;temperature
76381;BMP280;65202;52.520;10.528;2024-01-27T00:01:10;102391.97;;;5.85
76381;BMP280;65202;52.520;10.528;2024-01-27T00:03:38;102396.25;;;5.77
76381;BMP280;65202;52.520;10.528;2024-01-27T00:06:05;102397.72;;;5.75
76381;BMP280;65202;52.520;10.528;2024-01-27T00:08:33;102407.41;;;5.64
76381;BMP280;65202;52.520;10.528;2024-01-27T00:11:00;102397.44;;;5.72
76381;BMP280;65202;52.520;10.528;2024-01-27T00:13:28;102395.53;;;5.78
76381;BMP280;65202;52.520;10.528;2024-01-27T00:15:55;102393.06;;;5.70
76381;BMP280;65202;52.520;10.528;2024-01-27T00:18:22;102403.13;;;5.71
76381;BMP280;65202;52.520;10.528;2024-01-27T00:20:50;102400.94;;;5.74
76381;BMP280;65202;52.520;10.528;2024-01-27T00:23:18;102398.44;;;5.74
76381;BMP280;65202;52.520;10.528;2024-01-27T00:25:45;102403.00;;;5.70
76381;BMP280;65202;52.520;10.528;2024-01-27T00:28:12;102395.66;;;5.71
76381;BMP280;65202;52.520;10.528;2024-01-27T00:30:40;102390.91;;;5.64
76381;BMP280;65202;52.520;10.528;2024-01-27T00:33:07;102393.66;;;5.67
76381;BMP280;65202;52.520;10.528;2024-01-27T00:35:35;102400.09;;;5.65
76381;BMP280;65202;52.520;10.528;2024-01-27T00:38:02;102400.03;;;5.74
76381;BMP280;65202;52.520;10.528;2024-01-27T00:40:30;102406.09;;;5.67
76381;BMP280;65202;52.520;10.528;2024-01-27T00:42:57;102397.72;;;5.75
76381;BMP280;65202;52.520;10.528;2024-01-27T00:45:25;102394.34;;;5.75
76381;BMP280;65202;52.520;10.528;2024-01-27T00:47:55;102392.00;;;5.76
76381;BMP280;65202;52.520;10.528;2024-01-27T00:50:26;102405.75;;;5.73
76381;BMP280;65202;52.520;10.528;2024-01-27T00:52:55;102409.84;;;5.72
76381;BMP280;65202;52.520;10.528;2024-01-27T00:55:25;102397.91;;;5.68
76381;BMP280;65202;52.520;10.528;2024-01-27T00:57:53;102391.72;;;5.73
76381;BMP280;65202;52.520;10.528;2024-01-27T01:00:21;102404.44;;;5.76
76381;BMP280;65202;52.520;10.528;2024-01-27T01:02:49;102392.19;;;5.69
76381;BMP280;65202;52.520;10.528;2024-01-27T01:05:16;102391.59;;;5.72
76381;BMP280;65202;52.520;10.528;2024-01-27T01:07:43;102388.69;;;5.67
76381;BMP280;65202;52.520;10.528;2024-01-27T01:10:11;102392.94;;;5.68
76381;BMP280;65202;52.520;10.528;2024-01-27T01:12:38;102392.63;;;5.65
76381;BMP280;65202;52.520;10.528;2024-01-27T01:15:06;102400.84;;;5.64
76381;BMP280;65202;52.520;10.528;2024-01-27T01:17:34;102410.66;;;5.63
76381;BMP280;65202;52.520;10.528;2024-01-27T01:20:02;102417.75;;;5.50
76381;BMP280;65202;52.520;10.528;2024-01-27T01:22:29;102421.56;;;5.47
76381;BMP280;65202;52.520;10.528;2024-01-27T01:24:57;102432.25;;;5.46
76381;BMP280;65202;52.520;10.528;2024-01-27T01:27:25;102432.53;;;5.49
76381;BMP280;65202;52.520;10.528;2024-01-27T01:29:53;102437.34;;;5.47
76381;BMP280;65202;52.520;10.528;2024-01-27T01:32:21;102440.44;;;5.45
76381;BMP280;65202;52.520;10.528;2024-01-27T01:34:51;102448.59;;;5.52
76381;BMP280;65202;52.520;10.528;2024-01-27T01:37:18;102450.78;;;5.49
76381;BMP280;65202;52.520;10.528;2024-01-27T01:39:46;102455.91;;;5.51
76381;BMP280;65202;52.520;10.528;2024-01-27T01:42:13;102459.38;;;5.53
76381;BMP280;65202;52.520;10.528;2024-01-27T01:44:41;102466.66;;;5.60
76381;BMP280;65202;52.520;10.528;2024-01-27T01:47:09;102472.69;;;5.53
76381;BMP280;65202;52.520;10.528;2024-01-27T01:49:37;102474.25;;;5.61
76381;BMP280;65202;52.520;10.528;2024-01-27T01:52:05;102471.91;;;5.62
76381;BMP280;65202;52.520;10.528;2024-01-27T01:54:33;102471.34;;;5.57
76381;BMP280;65202;52.520;10.528;2024-01-27T01:57:00;102474.50;;;5.64
76381;BMP280;65202;52.520;10.528;2024-01-27T01:59:29;102469.06;;;5.68
76381;BMP280;65202;52.520;10.528;2024-01-27T02:01:57;102465.13;;;5.70
76381;BMP280;65202;52.520;10.528;2024-01-27T02:04:24;102473.91;;;5.66
76381;BMP280;65202;52.520;10.528;2024-01-27T02:06:52;102480.47;;;5.74
76381;BMP280;65202;52.520;10.528;2024-01-27T02:09:20;102475.19;;;5.71
76381;BMP280;65202;52.520;10.528;2024-01-27T02:11:47;102481.09;;;5.63
76381;BMP280;65202;52.520;10.528;2024-01-27T02:14:18;102483.00;;;5.66
76381;BMP280;65202;52.520;10.528;2024-01-27T02:16:45;102475.94;;;5.70
76381;BMP280;65202;52.520;10.528;2024-01-27T02:19:15;102482.66;;;5.71
76381;BMP280;65202;52.520;10.528;2024-01-27T02:21:43;102486.16;;;5.73
76381;BMP280;65202;52.520;10.528;2024-01-27T02:24:10;102487.94;;;5.74
76381;BMP280;65202;52.520;10.528;2024-01-27T02:26:38;102491.78;;;5.62
76381;BMP280;65202;52.520;10.528;2024-01-27T02:29:05;102489.97;;;5.78
76381;BMP280;65202;52.520;10.528;2024-01-27T02:31:33;102506.78;;;5.72
76381;BMP280;65202;52.520;10.528;2024-01-27T02:34:00;102508.09;;;5.77
76381;BMP280;65202;52.520;10.528;2024-01-27T02:36:28;102511.63;;;5.79
76381;BMP280;65202;52.520;10.528;2024-01-27T02:38:56;102526.38;;;5.78
76381;BMP280;65202;52.520;10.528;2024-01-27T02:41:23;102518.06;;;5.77
76381;BMP280;65202;52.520;10.528;2024-01-27T02:43:51;102527.28;;;5.78
76381;BMP280;65202;52.520;10.528;2024-01-27T02:46:19;102527.28;;;5.78
76381;BMP280;65202;52.520;10.528;2024-01-27T02:48:46;102538.38;;;5.73
76381;BMP280;65202;52.520;10.528;2024-01-27T02:51:19;102532.66;;;5.74
76381;BMP280;65202;52.520;10.528;2024-01-27T02:53:50;102531.34;;;5.78
76381;BMP280;65202;52.520;10.528;2024-01-27T02:56:17;102534.72;;;5.70
76381;BMP280;65202;52.520;10.528;2024-01-27T02:58:44;102539.69;;;5.70
76381;BMP280;65202;52.520;10.528;2024-01-27T03:01:12;102534.84;;;5.71
76381;BMP280;65202;52.520;10.528;2024-01-27T03:03:40;102530.94;;;5.65
76381;BMP280;65202;52.520;10.528;2024-01-27T03:06:08;102529.31;;;5.65
76381;BMP280;65202;52.520;10.528;2024-01-27T03:08:35;102531.81;;;5.65
76381;BMP280;65202;52.520;10.528;2024-01-27T03:11:03;102529.31;;;5.65
76381;BMP280;65202;52.520;10.528;2024-01-27T03:13:34;102535.78;;;5.63
76381;BMP280;65202;52.520;10.528;2024-01-27T03:16:02;102540.03;;;5.64
76381;BMP280;65202;52.520;10.528;2024-01-27T03:18:29;102535.94;;;5.57
76381;BMP280;65202;52.520;10.528;2024-01-27T03:20:57;102538.59;;;5.58
76381;BMP280;65202;52.520;10.528;2024-01-27T03:23:24;102541.09;;;5.50
76381;BMP280;65202;52.520;10.528;2024-01-27T03:25:52;102537.31;;;5.45
76381;BMP280;65202;52.520;10.528;2024-01-27T03:28:21;102547.66;;;5.49
76381;BMP280;65202;52.520;10.528;2024-01-27T03:30:48;102561.16;;;5.43
76381;BMP280;65202;52.520;10.528;2024-01-27T03:33:18;102562.44;;;5.48
76381;BMP280;65202;52.520;10.528;2024-01-27T03:35:49;102565.38;;;5.44
76381;BMP280;65202;52.520;10.528;2024-01-27T03:38:18;102586.28;;;5.46
76381;BMP280;65202;52.520;10.528;2024-01-27T03:40:45;102583.03;;;5.47
76381;BMP280;65202;52.520;10.528;2024-01-27T03:43:13;102579.38;;;5.52
76381;BMP280;65202;52.520;10.528;2024-01-27T03:45:40;102575.72;;;5.57
76381;BMP280;65202;52.520;10.528;2024-01-27T03:48:08;102576.31;;;5.54
76381;BMP280;65202;52.520;10.528;2024-01-27T03:50:35;102571.13;;;5.34
76381;BMP280;65202;52.520;10.528;2024-01-27T03:53:03;102573.56;;;5.43
76381;BMP280;65202;52.520;10.528;2024-01-27T03:55:31;102579.00;;;5.39
76381;BMP280;65202;52.520;10.528;2024-01-27T03:57:59;102582.19;;;5.46
76381;BMP280;65202;52.520;10.528;2024-01-27T04:00:26;102585.59;;;5.38
76381;BMP280;65202;52.520;10.528;2024-01-27T04:02:57;102585.16;;;5.34
76381;BMP280;65202;52.520;10.528;2024-01-27T04:05:25;102573.75;;;5.36
76381;BMP280;65202;52.520;10.528;2024-01-27T04:07:53;102581.94;;;5.35
76381;BMP280;65202;52.520;10.528;2024-01-27T04:10:20;102581.06;;;5.34
76381;BMP280;65202;52.520;10.528;2024-01-27T04:12:49;102573.00;;;5.37
76381;BMP280;65202;52.520;10.528;2024-01-27T04:15:17;102573.16;;;5.38
76381;BMP280;65202;52.520;10.528;2024-01-27T04:17:44;102591.03;;;5.26
76381;BMP280;65202;52.520;10.528;2024-01-27T04:20:12;102581.09;;;5.26
76381;BMP280;65202;52.520;10.528;2024-01-27T04:22:39;102575.47;;;5.37
76381;BMP280;65202;52.520;10.528;2024-01-27T04:25:07;102583.97;;;5.30
76381;BMP280;65202;52.520;10.528;2024-01-27T04:27:38;102586.19;;;5.27
76381;BMP280;65202;52.520;10.528;2024-01-27T04:30:12;102588.81;;;5.20
76381;BMP280;65202;52.520;10.528;2024-01-27T04:32:40;102593.78;;;5.20
76381;BMP280;65202;52.520;10.528;2024-01-27T04:35:11;102597.16;;;5.21
76381;BMP280;65202;52.520;10.528;2024-01-27T04:37:39;102604.63;;;5.21
76381;BMP280;65202;52.520;10.528;2024-01-27T04:40:07;102600.22;;;5.27
76381;BMP280;65202;52.520;10.528;2024-01-27T04:42:35;102601.81;;;5.26
76381;BMP280;65202;52.520;10.528;2024-01-27T04:45:05;102603.75;;;5.12
76381;BMP280;65202;52.520;10.528;2024-01-27T04:47:35;102607.69;;;5.18
76381;BMP280;65202;52.520;10.528;2024-01-27T04:50:02;102618.47;;;5.19
76381;BMP280;65202;52.520;10.528;2024-01-27T04:52:31;102604.03;;;5.32
76381;BMP280;65202;52.520;10.528;2024-01-27T04:54:59;102614.97;;;5.25
76381;BMP280;65202;52.520;10.528;2024-01-27T04:57:27;102619.66;;;5.31
76381;BMP280;65202;52.520;10.528;2024-01-27T04:59:54;102628.56;;;5.20
76381;BMP280;65202;52.520;10.528;2024-01-27T05:02:22;102626.25;;;5.22
76381;BMP280;65202;52.520;10.528;2024-01-27T05:04:49;102635.13;;;5.28
76381;BMP280;65202;52.520;10.528;2024-01-27T05:07:17;102634.56;;;5.31
76381;BMP280;65202;52.520;10.528;2024-01-27T05:09:44;102638.81;;;5.15
76381;BMP280;65202;52.520;10.528;2024-01-27T05:12:12;102633.69;;;5.22
76381;BMP280;65202;52.520;10.528;2024-01-27T05:14:43;102643.19;;;5.09
76381;BMP280;65202;52.520;10.528;2024-01-27T05:17:12;102633.38;;;5.10
76381;BMP280;65202;52.520;10.528;2024-01-27T05:19:39;102634.88;;;5.08
76381;BMP280;65202;52.520;10.528;2024-01-27T05:22:07;102637.34;;;5.00
76381;BMP280;65202;52.520;10.528;2024-01-27T05:24:34;102635.16;;;4.95
76381;BMP280;65202;52.520;10.528;2024-01-27T05:27:02;102638.66;;;4.97
76381;BMP280;65202;52.520;10.528;2024-01-27T05:29:29;102640.41;;;4.89
76381;BMP280;65202;52.520;10.528;2024-01-27T05:31:57;102639.25;;;4.86
76381;BMP280;65202;52.520;10.528;2024-01-27T05:34:24;102650.63;;;4.75
76381;BMP280;65202;52.520;10.528;2024-01-27T05:36:52;102649.03;;;4.67
76381;BMP280;65202;52.520;10.528;2024-01-27T05:39:19;102649.03;;;4.67
76381;BMP280;65202;52.520;10.528;2024-01-27T05:41:46;102651.06;;;4.54
76381;BMP280;65202;52.520;10.528;2024-01-27T05:44:14;102659.22;;;4.53
76381;BMP280;65202;52.520;10.528;2024-01-27T05:46:41;102659.81;;;4.51
76381;BMP280;65202;52.520;10.528;2024-01-27T05:49:09;102660.53;;;4.50
76381;BMP280;65202;52.520;10.528;2024-01-27T05:51:36;102668.72;;;4.57
76381;BMP280;65202;52.520;10.528;2024-01-27T05:54:05;102668.56;;;4.56
76381;BMP280;65202;52.520;10.528;2024-01-27T05:56:36;102670.88;;;4.46
76381;BMP280;65202;52.520;10.528;2024-01-27T05:59:03;102665.31;;;4.40
76381;BMP280;65202;52.520;10.528;2024-01-27T06:01:31;102671.28;;;4.34
76381;BMP280;65202;52.520;10.528;2024-01-27T06:03:58;102679.59;;;4.34
76381;BMP280;65202;52.520;10.528;2024-01-27T06:06:26;102674.47;;;4.33
76381;BMP280;65202;52.520;10.528;2024-01-27T06:08:53;102679.16;;;4.30
76381;BMP280;65202;52.520;10.528;2024-01-27T06:11:24;102680.03;;;4.30
76381;BMP280;65202;52.520;10.528;2024-01-27T06:13:52;102685.84;;;4.22
76381;BMP280;65202;52.520;10.528;2024-01-27T06:16:20;102693.13;;;4.29
76381;BMP280;65202;52.520;10.528;2024-01-27T06:18:47;102693.00;;;4.28
76381;BMP280;65202;52.520;10.528;2024-01-27T06:21:16;102698.66;;;4.27
76381;BMP280;65202;52.520;10.528;2024-01-27T06:23:43;102687.84;;;4.18
76381;BMP280;65202;52.520;10.528;2024-01-27T06:26:13;102693.38;;;4.15
76381;BMP280;65202;52.520;10.528;2024-01-27T06:28:41;102703.47;;;4.17
76381;BMP280;65202;52.520;10.528;2024-01-27T06:31:08;102693.72;;;4.18
76381;BMP280;65202;52.520;10.528;2024-01-27T06:33:36;102696.38;;;4.36
76381;BMP280;65202;52.520;10.528;2024-01-27T06:36:04;102700.16;;;4.25
76381;BMP280;65202;52.520;10.528;2024-01-27T06:38:31;102700.44;;;4.19
76381;BMP280;65202;52.520;10.528;2024-01-27T06:40:59;102697.78;;;4.18
76381;BMP280;65202;52.520;10.528;2024-01-27T06:43:26;102701.38;;;4.04
76381;BMP280;65202;52.520;10.528;2024-01-27T06:45:54;102693.13;;;4.21
76381;BMP280;65202;52.520;10.528;2024-01-27T06:48:23;102694.28;;;4.16
76381;BMP280;65202;52.520;10.528;2024-01-27T06:50:54;102709.25;;;4.09
76381;BMP280;65202;52.520;10.528;2024-01-27T06:53:21;102702.34;;;3.98
76381;BMP280;65202;52.520;10.528;2024-01-27T06:55:49;102709.06;;;3.99
76381;BMP280;65202;52.520;10.528;2024-01-27T06:58:17;102717.03;;;4.12
76381;BMP280;65202;52.520;10.528;2024-01-27T07:00:44;102731.00;;;4.11
76381;BMP280;65202;52.520;10.528;2024-01-27T07:03:12;102730.94;;;4.03
76381;BMP280;65202;52.520;10.528;2024-01-27T07:05:40;102733.56;;;3.96
76381;BMP280;65202;52.520;10.528;2024-01-27T07:08:09;102726.63;;;4.09
76381;BMP280;65202;52.520;10.528;2024-01-27T07:10:36;102723.94;;;3.99
76381;BMP280;65202;52.520;10.528;2024-01-27T07:13:05;102731.50;;;3.92
76381;BMP280;65202;52.520;10.528;2024-01-27T07:15:35;102741.34;;;3.83
76381;BMP280;65202;52.520;10.528;2024-01-27T07:18:04;102757.44;;;3.95
76381;BMP280;65202;52.520;10.528;2024-01-27T07:20:33;102754.88;;;4.02
76381;BMP280;65202;52.520;10.528;2024-01-27T07:23:00;102750.97;;;4.04
76381;BMP280;65202;52.520;10.528;2024-01-27T07:25:27;102747.44;;;4.02
76381;BMP280;65202;52.520;10.528;2024-01-27T07:27:56;102752.25;;;4.01
76381;BMP280;65202;52.520;10.528;2024-01-27T07:30:23;102756.69;;;4.12
76381;BMP280;65202;52.520;10.528;2024-01-27T07:32:51;102764.59;;;3.92
76381;BMP280;65202;52.520;10.528;2024-01-27T07:35:18;102769.59;;;4.01
76381;BMP280;65202;52.520;10.528;2024-01-27T07:37:46;102767.28;;;4.02
76381;BMP280;65202;52.520;10.528;2024-01-27T07:40:13;102768.97;;;4.19
76381;BMP280;65202;52.520;10.528;2024-01-27T07:42:42;102770.44;;;4.17
76381;BMP280;65202;52.520;10.528;2024-01-27T07:45:10;102767.19;;;4.09
76381;BMP280;65202;52.520;10.528;2024-01-27T07:47:38;102772.91;;;4.17
76381;BMP280;65202;52.520;10.528;2024-01-27T07:50:05;102780.59;;;4.11
76381;BMP280;65202;52.520;10.528;2024-01-27T07:52:33;102773.06;;;4.27
76381;BMP280;65202;52.520;10.528;2024-01-27T07:55:00;102769.38;;;4.15
76381;BMP280;65202;52.520;10.528;2024-01-27T07:57:28;102769.44;;;4.23
76381;BMP280;65202;52.520;10.528;2024-01-27T07:59:56;102778.50;;;4.31
76381;BMP280;65202;52.520;10.528;2024-01-27T08:02:23;102775.25;;;4.24
76381;BMP280;65202;52.520;10.528;2024-01-27T08:04:53;102778.13;;;4.43
76381;BMP280;65202;52.520;10.528;2024-01-27T08:07:21;102774.09;;;4.61
76381;BMP280;65202;52.520;10.528;2024-01-27T08:09:48;102786.66;;;4.62
76381;BMP280;65202;52.520;10.528;2024-01-27T08:12:15;102782.13;;;4.58
76381;BMP280;65202;52.520;10.528;2024-01-27T08:14:43;102773.69;;;4.73
76381;BMP280;65202;52.520;10.528;2024-01-27T08:17:10;102769.16;;;4.69
76381;BMP280;65202;52.520;10.528;2024-01-27T08:19:38;102780.00;;;4.87
76381;BMP280;65202;52.520;10.528;2024-01-27T08:22:05;102774.16;;;4.86
76381;BMP280;65202;52.520;10.528;2024-01-27T08:24:33;102771.88;;;5.30
76381;BMP280;65202;52.520;10.528;2024-01-27T08:27:00;102769.63;;;6.17
76381;BMP280;65202;52.520;10.528;2024-01-27T08:29:28;102752.75;;;6.58
76381;BMP280;65202;52.520;10.528;2024-01-27T08:31:56;102775.41;;;7.15
76381;BMP280;65202;52.520;10.528;2024-01-27T08:34:23;102777.19;;;7.44
76381;BMP280;65202;52.520;10.528;2024-01-27T08:36:51;102767.22;;;7.91
76381;BMP280;65202;52.520;10.528;2024-01-27T08:39:18;102758.44;;;8.32
76381;BMP280;65202;52.520;10.528;2024-01-27T08:41:46;102764.97;;;8.60
76381;BMP280;65202;52.520;10.528;2024-01-27T08:44:13;102779.53;;;8.36
76381;BMP280;65202;52.520;10.528;2024-01-27T08:46:41;102780.97;;;8.92
76381;BMP280;65202;52.520;10.528;2024-01-27T08:49:08;102772.47;;;10.12
76381;BMP280;65202;52.520;10.528;2024-01-27T08:51:36;102776.78;;;9.93
76381;BMP280;65202;52.520;10.528;2024-01-27T08:54:04;102763.44;;;10.57
76381;BMP280;65202;52.520;10.528;2024-01-27T08:56:31;102765.13;;;11.00
76381;BMP280;65202;52.520;10.528;2024-01-27T08:58:59;102773.13;;;11.18
76381;BMP280;65202;52.520;10.528;2024-01-27T09:01:26;102769.59;;;10.71
76381;BMP280;65202;52.520;10.528;2024-01-27T09:03:54;102778.38;;;10.88
76381;BMP280;65202;52.520;10.528;2024-01-27T09:06:22;102778.84;;;11.05
76381;BMP280;65202;52.520;10.528;2024-01-27T09:08:49;102776.13;;;11.58
76381;BMP280;65202;52.520;10.528;2024-01-27T09:11:16;102783.91;;;11.28
76381;BMP280;65202;52.520;10.528;2024-01-27T09:13:44;102791.06;;;11.56
76381;BMP280;65202;52.520;10.528;2024-01-27T09:16:12;102789.81;;;11.40
76381;BMP280;65202;52.520;10.528;2024-01-27T09:18:40;102790.78;;;11.30
76381;BMP280;65202;52.520;10.528;2024-01-27T09:21:08;102798.59;;;11.68
76381;BMP280;65202;52.520;10.528;2024-01-27T09:23:36;102793.81;;;12.54
76381;BMP280;65202;52.520;10.528;2024-01-27T09:26:04;102794.63;;;12.05
76381;BMP280;65202;52.520;10.528;2024-01-27T09:28:32;102795.59;;;12.19
76381;BMP280;65202;52.520;10.528;2024-01-27T09:30:59;102800.63;;;12.79
76381;BMP280;65202;52.520;10.528;2024-01-27T09:33:27;102807.66;;;12.00
76381;BMP280;65202;52.520;10.528;2024-01-27T09:35:55;102802.69;;;12.13
76381;BMP280;65202;52.520;10.528;2024-01-27T09:38:22;102797.69;;;12.13
76381;BMP280;65202;52.520;10.528;2024-01-27T09:40:50;102802.91;;;12.16
76381;BMP280;65202;52.520;10.528;2024-01-27T09:43:18;102803.28;;;11.97
76381;BMP280;65202;52.520;10.528;2024-01-27T09:45:46;102802.53;;;12.34
76381;BMP280;65202;52.520;10.528;2024-01-27T09:48:14;102791.06;;;12.98
76381;BMP280;65202;52.520;10.528;2024-01-27T09:50:42;102794.16;;;13.07
76381;BMP280;65202;52.520;10.528;2024-01-27T09:53:09;102806.81;;;12.95
76381;BMP280;65202;52.520;10.528;2024-01-27T09:55:37;102798.28;;;12.69
76381;BMP280;65202;52.520;10.528;2024-01-27T09:58:05;102811.19;;;12.62
76381;BMP280;65202;52.520;10.528;2024-01-27T10:00:35;102810.94;;;12.35
76381;BMP280;65202;52.520;10.528;2024-01-27T10:03:04;102805.91;;;12.95
76381;BMP280;65202;52.520;10.528;2024-01-27T10:05:33;102808.66;;;12.62
76381;BMP280;65202;52.520;10.528;2024-01-27T10:08:06;102810.41;;;12.63
76381;BMP280;65202;52.520;10.528;2024-01-27T10:10:34;102810.06;;;12.34
76381;BMP280;65202;52.520;10.528;2024-01-27T10:13:03;102803.00;;;12.29
76381;BMP280;65202;52.520;10.528;2024-01-27T10:15:31;102807.34;;;12.20
76381;BMP280;65202;52.520;10.528;2024-01-27T10:18:06;102812.50;;;12.21
76381;BMP280;65202;52.520;10.528;2024-01-27T10:20:34;102817.66;;;11.89
76381;BMP280;65202;52.520;10.528;2024-01-27T10:23:12;102814.09;;;11.85
76381;BMP280;65202;52.520;10.528;2024-01-27T10:25:41;102829.38;;;11.21
76381;BMP280;65202;52.520;10.528;2024-01-27T10:28:09;102829.00;;;11.05
76381;BMP280;65202;52.520;10.528;2024-01-27T10:30:37;102820.72;;;11.06
76381;BMP280;65202;52.520;10.528;2024-01-27T10:33:08;102823.03;;;10.82
76381;BMP280;65202;52.520;10.528;2024-01-27T10:35:38;102824.16;;;10.64
76381;BMP280;65202;52.520;10.528;2024-01-27T10:38:05;102824.03;;;10.63
76381;BMP280;65202;52.520;10.528;2024-01-27T10:40:35;102826.59;;;10.53
76381;BMP280;65202;52.520;10.528;2024-01-27T10:43:05;102831.13;;;10.47
76381;BMP280;65202;52.520;10.528;2024-01-27T10:45:41;102832.72;;;10.56
76381;BMP280;65202;52.520;10.528;2024-01-27T10:48:10;102831.94;;;10.36
76381;BMP280;65202;52.520;10.528;2024-01-27T10:50:39;102827.81;;;10.36
76381;BMP280;65202;52.520;10.528;2024-01-27T10:53:22;102821.44;;;10.40
76381;BMP280;65202;52.520;10.528;2024-01-27T10:55:53;102828.72;;;10.27
76381;BMP280;65202;52.520;10.528;2024-01-27T10:58:23;102817.34;;;10.30
76381;BMP280;65202;52.520;10.528;2024-01-27T11:00:53;102826.22;;;10.27
76381;BMP280;65202;52.520;10.528;2024-01-27T11:03:23;102827.75;;;10.25
76381;BMP280;65202;52.520;10.528;2024-01-27T11:05:57;102815.50;;;10.18
76381;BMP280;65202;52.520;10.528;2024-01-27T11:08:26;102821.06;;;10.04
76381;BMP280;65202;52.520;10.528;2024-01-27T11:10:58;102830.72;;;9.90
76381;BMP280;65202;52.520;10.528;2024-01-27T11:13:27;102831.75;;;9.72
76381;BMP280;65202;52.520;10.528;2024-01-27T11:15:57;102828.41;;;9.71
76381;BMP280;65202;52.520;10.528;2024-01-27T11:18:30;102827.94;;;9.45
76381;BMP280;65202;52.520;10.528;2024-01-27T11:20:58;102828.31;;;9.60
76381;BMP280;65202;52.520;10.528;2024-01-27T11:23:34;102830.81;;;9.50
76381;BMP280;65202;52.520;10.528;2024-01-27T11:26:05;102827.41;;;9.59
76381;BMP280;65202;52.520;10.528;2024-01-27T11:28:34;102824.69;;;9.46
76381;BMP280;65202;52.520;10.528;2024-01-27T11:31:06;102829.16;;;9.60
76381;BMP280;65202;52.520;10.528;2024-01-27T11:33:44;102833.44;;;9.61
76381;BMP280;65202;52.520;10.528;2024-01-27T11:36:26;102838.56;;;9.33
76381;BMP280;65202;52.520;10.528;2024-01-27T11:38:57;102841.22;;;9.15
76381;BMP280;65202;52.520;10.528;2024-01-27T11:41:27;102840.44;;;9.36
76381;BMP280;65202;52.520;10.528;2024-01-27T11:43:56;102842.19;;;9.46
76381;BMP280;65202;52.520;10.528;2024-01-27T11:46:27;102836.56;;;9.59
76381;BMP280;65202;52.520;10.528;2024-01-27T11:48:55;102831.97;;;9.43
76381;BMP280;65202;52.520;10.528;2024-01-27T11:51:24;102840.03;;;9.61
76381;BMP280;65202;52.520;10.528;2024-01-27T11:53:54;102841.66;;;9.70
76381;BMP280;65202;52.520;10.528;2024-01-27T11:56:22;102834.81;;;9.58
76381;BMP280;65202;52.520;10.528;2024-01-27T11:58:49;102834.66;;;9.66
76381;BMP280;65202;52.520;10.528;2024-01-27T12:01:18;102839.38;;;9.83
76381;BMP280;65202;52.520;10.528;2024-01-27T12:03:46;102824.72;;;9.98
76381;BMP280;65202;52.520;10.528;2024-01-27T12:06:17;102817.06;;;10.06
76381;BMP280;65202;52.520;10.528;2024-01-27T12:08:48;102823.13;;;10.19
76381;BMP280;65202;52.520;10.528;2024-01-27T12:11:17;102823.72;;;10.27
76381;BMP280;65202;52.520;10.528;2024-01-27T12:13:52;102823.09;;;10.51
76381;BMP280;65202;52.520;10.528;2024-01-27T12:16:22;102826.13;;;10.47
76381;BMP280;65202;52.520;10.528;2024-01-27T12:18:53;102826.88;;;10.46
76381;BMP280;65202;52.520;10.528;2024-01-27T12:21:24;102830.38;;;10.26
76381;BMP280;65202;52.520;10.528;2024-01-27T12:23:53;102823.63;;;10.47
76381;BMP280;65202;52.520;10.528;2024-01-27T12:26:22;102835.53;;;10.18
76381;BMP280;65202;52.520;10.528;2024-01-27T12:28:54;102831.25;;;10.27
76381;BMP280;65202;52.520;10.528;2024-01-27T12:31:23;102822.13;;;10.27
76381;BMP280;65202;52.520;10.528;2024-01-27T12:33:53;102829.16;;;10.43
76381;BMP280;65202;52.520;10.528;2024-01-27T12:36:23;102835.13;;;10.23
76381;BMP280;65202;52.520;10.528;2024-01-27T12:39:01;102830.91;;;10.44
76381;BMP280;65202;52.520;10.528;2024-01-27T12:41:32;102840.09;;;10.55
76381;BMP280;65202;52.520;10.528;2024-01-27T12:44:01;102831.88;;;10.67
76381;BMP280;65202;52.520;10.528;2024-01-27T12:46:29;102832.16;;;10.70
76381;BMP280;65202;52.520;10.528;2024-01-27T12:48:57;102844.59;;;10.80
76381;BMP280;65202;52.520;10.528;2024-01-27T12:51:25;102839.97;;;10.74
76381;BMP280;65202;52.520;10.528;2024-01-27T12:53:52;102838.16;;;10.83
76381;BMP280;65202;52.520;10.528;2024-01-27T12:56:22;102848.03;;;10.92
76381;BMP280;65202;52.520;10.528;2024-01-27T12:58:51;102854.44;;;10.88
76381;BMP280;65202;52.520;10.528;2024-01-27T13:01:19;102847.75;;;10.77
76381;BMP280;65202;52.520;10.528;2024-01-27T13:03:46;102849.09;;;10.84
76381;BMP280;65202;52.520;10.528;2024-01-27T13:06:14;102847.69;;;10.87
76381;BMP280;65202;52.520;10.528;2024-01-27T13:08:42;102839.22;;;10.97
76381;BMP280;65202;52.520;10.528;2024-01-27T13:11:10;102843.66;;;10.89
76381;BMP280;65202;52.520;10.528;2024-01-27T13:13:40;102837.31;;;10.83
76381;BMP280;65202;52.520;10.528;2024-01-27T13:16:09;102837.69;;;10.66
76381;BMP280;65202;52.520;10.528;2024-01-27T13:18:36;102844.41;;;10.67
76381;BMP280;65202;52.520;10.528;2024-01-27T13:21:04;102841.28;;;10.69
76381;BMP280;65202;52.520;10.528;2024-01-27T13:23:33;102836.13;;;10.89
76381;BMP280;65202;52.520;10.528;2024-01-27T13:26:01;102838.69;;;10.79
76381;BMP280;65202;52.520;10.528;2024-01-27T13:28:45;102834.53;;;11.34
76381;BMP280;65202;52.520;10.528;2024-01-27T13:31:16;102831.75;;;11.20
76381;BMP280;65202;52.520;10.528;2024-01-27T13:33:43;102837.19;;;11.14
76381;BMP280;65202;52.520;10.528;2024-01-27T13:36:12;102831.94;;;11.00
76381;BMP280;65202;52.520;10.528;2024-01-27T13:38:39;102830.94;;;11.42
76381;BMP280;65202;52.520;10.528;2024-01-27T13:41:07;102832.69;;;11.43
76381;BMP280;65202;52.520;10.528;2024-01-27T13:43:35;102835.81;;;11.29
76381;BMP280;65202;52.520;10.528;2024-01-27T13:46:02;102832.84;;;11.56
76381;BMP280;65202;52.520;10.528;2024-01-27T13:48:30;102837.66;;;11.53
76381;BMP280;65202;52.520;10.528;2024-01-27T13:50:58;102833.84;;;11.58
76381;BMP280;65202;52.520;10.528;2024-01-27T13:53:26;102834.47;;;11.55
76381;BMP280;65202;52.520;10.528;2024-01-27T13:56:09;102825.59;;;11.26
76381;BMP280;65202;52.520;10.528;2024-01-27T13:58:37;102825.19;;;11.10
76381;BMP280;65202;52.520;10.528;2024-01-27T14:01:06;102820.09;;;11.20